Time;durP1;ratioP1;P1;durP2;ratioP2;P2;SDS_P1;SDS_P2;PMS_P1;PMS_P2;Temp;Humidity;BMP_temperature;BMP_pressure;BME280_temperature;BME280_humidity;BME280_pressure;Samples;Min_cycle;Max_cycle;Signal;HPM_P1;HPM_P2
2021/10/07 00:01:21;;;;;;;24.75;12.70;;;;;;;;;;8227557;28;20045;-75
2021/10/07 00:05:29;;;;;;;19.08;13.60;;;;;;;;;;8236102;28;20492;-76
2021/10/07 00:09:38;;;;;;;17.30;11.52;;;;;;;;;;8227215;28;20457;-76
2021/10/07 00:13:44;;;;;;;18.27;11.20;;;;;;;;;;8225719;28;20488;-75
2021/10/07 00:17:49;;;;;;;18.40;11.75;;;;;;;;;;8226231;28;20487;-76
2021/10/07 00:21:55;;;;;;;16.38;11.15;;;;;;;;;;8225848;28;20369;-76
2021/10/07 00:26:00;;;;;;;19.30;11.00;;;;;;;;;;8227219;28;20345;-75
2021/10/07 00:30:14;;;;;;;19.13;10.40;;;;;;;;;;8225541;28;20510;-75
2021/10/07 00:34:25;;;;;;;16.73;10.65;;;;;;;;;;8223564;28;20477;-78
2021/10/07 00:42:52;;;;;;;15.40;10.80;;;;;;;;;;8225789;28;20484;-75
2021/10/07 00:47:03;;;;;;;15.65;9.95;;;;;;;;;;8223556;28;20399;-76
2021/10/07 00:51:08;;;;;;;19.15;11.38;;;;;;;;;;8224480;28;20361;-76
2021/10/07 00:55:14;;;;;;;15.82;11.10;;;;;;;;;;8224720;28;20476;-76
2021/10/07 00:59:20;;;;;;;16.08;9.52;;;;;;;;;;8207502;28;20510;-76
2021/10/07 01:03:25;;;;;;;22.35;9.52;;;;;;;;;;8224543;28;20532;-75
2021/10/07 01:07:30;;;;;;;15.18;10.40;;;;;;;;;;8223339;28;20473;-75
2021/10/07 01:11:35;;;;;;;15.73;10.35;;;;;;;;;;8223720;28;20505;-75
2021/10/07 01:15:42;;;;;;;17.02;11.40;;;;;;;;;;8226570;28;20472;-77
2021/10/07 01:19:50;;;;;;;19.10;12.00;;;;;;;;;;8226339;28;20480;-76
2021/10/07 01:23:55;;;;;;;14.45;10.27;;;;;;;;;;8229966;28;20041;-76
2021/10/07 01:28:01;;;;;;;16.42;10.55;;;;;;;;;;8231319;28;20461;-75
2021/10/07 01:32:08;;;;;;;15.07;10.13;;;;;;;;;;8227866;28;20480;-76
2021/10/07 01:36:13;;;;;;;17.63;10.68;;;;;;;;;;8230266;28;20477;-76
2021/10/07 01:40:18;;;;;;;15.38;10.30;;;;;;;;;;8231021;28;20367;-76
2021/10/07 01:44:25;;;;;;;17.30;11.73;;;;;;;;;;8231499;28;20045;-75
2021/10/07 01:48:32;;;;;;;15.45;11.02;;;;;;;;;;8234229;28;20372;-76
2021/10/07 01:52:37;;;;;;;18.17;10.98;;;;;;;;;;8229854;28;20072;-75
2021/10/07 01:56:43;;;;;;;17.80;11.30;;;;;;;;;;8229844;28;20484;-76
2021/10/07 02:00:49;;;;;;;10.07;7.63;;;;;;;;;;8229263;28;20350;-76
2021/10/07 02:04:54;;;;;;;11.25;7.82;;;;;;;;;;8231069;28;20053;-75
2021/10/07 02:09:00;;;;;;;10.40;7.85;;;;;;;;;;8230094;28;20107;-76
2021/10/07 02:13:05;;;;;;;17.20;9.55;;;;;;;;;;8230195;28;20053;-75
2021/10/07 02:17:10;;;;;;;13.13;9.30;;;;;;;;;;8229620;28;20358;-75
2021/10/07 02:21:16;;;;;;;15.80;10.82;;;;;;;;;;8230547;28;20392;-76
2021/10/07 02:25:22;;;;;;;14.60;10.27;;;;;;;;;;8229024;28;20487;-76
2021/10/07 02:29:27;;;;;;;15.73;9.50;;;;;;;;;;8229309;28;20480;-76
2021/10/07 02:33:32;;;;;;;14.77;9.98;;;;;;;;;;8230241;28;20373;-76
2021/10/07 02:37:38;;;;;;;13.30;9.45;;;;;;;;;;8228477;28;20045;-75
2021/10/07 02:41:43;;;;;;;15.48;9.60;;;;;;;;;;8228108;28;20491;-76
2021/10/07 02:45:48;;;;;;;19.60;9.00;;;;;;;;;;8230855;28;20364;-76
2021/10/07 02:49:55;;;;;;;16.23;8.50;;;;;;;;;;8229329;28;20326;-76
2021/10/07 02:54:00;;;;;;;13.98;9.30;;;;;;;;;;8228465;28;20037;-76
2021/10/07 02:58:05;;;;;;;19.75;9.90;;;;;;;;;;8228807;28;20358;-76
2021/10/07 03:02:11;;;;;;;16.63;8.15;;;;;;;;;;8228096;28;20385;-76
2021/10/07 03:06:17;;;;;;;14.43;10.02;;;;;;;;;;8228795;28;20481;-75
2021/10/07 03:10:23;;;;;;;16.05;9.88;;;;;;;;;;8228591;28;20486;-76
2021/10/07 03:14:28;;;;;;;18.17;10.65;;;;;;;;;;8229315;28;20461;-76
2021/10/07 03:18:34;;;;;;;18.83;9.77;;;;;;;;;;8228301;28;20403;-75
2021/10/07 03:22:40;;;;;;;14.57;9.30;;;;;;;;;;8243740;28;20360;-76
2021/10/07 03:26:45;;;;;;;16.83;10.23;;;;;;;;;;8228680;28;20492;-76
2021/10/07 03:30:50;;;;;;;18.98;10.88;;;;;;;;;;8228908;28;20377;-75
2021/10/07 03:34:55;;;;;;;18.45;9.80;;;;;;;;;;8229763;28;20357;-75
2021/10/07 03:39:01;;;;;;;22.02;11.48;;;;;;;;;;8228214;28;20098;-76
2021/10/07 03:43:07;;;;;;;19.83;11.00;;;;;;;;;;8229032;28;20441;-75
2021/10/07 03:47:12;;;;;;;19.38;11.25;;;;;;;;;;8227075;28;20488;-75
2021/10/07 03:51:17;;;;;;;18.13;11.32;;;;;;;;;;8228539;28;20465;-75
2021/10/07 03:55:22;;;;;;;14.93;11.38;;;;;;;;;;8225887;28;20461;-75
2021/10/07 03:59:27;;;;;;;17.83;11.70;;;;;;;;;;8227775;28;20514;-74
2021/10/07 04:03:32;;;;;;;15.88;11.68;;;;;;;;;;8226472;28;20415;-75
2021/10/07 04:07:38;;;;;;;21.15;11.93;;;;;;;;;;8223018;28;20421;-75
2021/10/07 04:11:43;;;;;;;19.13;12.85;;;;;;;;;;8226851;28;20472;-74
2021/10/07 04:15:49;;;;;;;17.92;12.18;;;;;;;;;;8225636;28;20459;-75
2021/10/07 04:19:54;;;;;;;19.65;10.98;;;;;;;;;;8225171;28;20354;-75
2021/10/07 04:23:59;;;;;;;16.75;10.50;;;;;;;;;;8228111;28;20076;-75
2021/10/07 04:28:06;;;;;;;13.40;9.65;;;;;;;;;;8224958;28;20506;-75
2021/10/07 04:32:11;;;;;;;16.55;9.65;;;;;;;;;;8227078;28;20058;-75
2021/10/07 04:36:16;;;;;;;16.25;9.77;;;;;;;;;;8224439;28;20041;-74
2021/10/07 04:40:22;;;;;;;13.98;10.50;;;;;;;;;;8224120;28;20344;-74
2021/10/07 04:44:27;;;;;;;20.70;11.73;;;;;;;;;;8107057;28;20045;-74
2021/10/07 04:48:32;;;;;;;18.13;10.48;;;;;;;;;;8225691;28;20404;-75
2021/10/07 04:52:37;;;;;;;20.00;11.55;;;;;;;;;;8224907;28;20361;-75
2021/10/07 04:56:43;;;;;;;18.65;11.15;;;;;;;;;;8226085;28;20437;-75
2021/10/07 05:00:48;;;;;;;28.73;12.63;;;;;;;;;;8223349;28;20330;-74
2021/10/07 05:04:54;;;;;;;18.10;12.20;;;;;;;;;;8224857;28;20495;-75
2021/10/07 05:08:58;;;;;;;21.88;13.02;;;;;;;;;;8223983;28;20361;-74
2021/10/07 05:13:03;;;;;;;19.25;12.30;;;;;;;;;;8221674;28;20487;-74
2021/10/07 05:17:08;;;;;;;19.65;12.52;;;;;;;;;;8224452;28;20468;-75
2021/10/07 05:21:14;;;;;;;21.65;12.68;;;;;;;;;;8224130;28;20408;-75
2021/10/07 05:25:19;;;;;;;20.50;11.90;;;;;;;;;;8239376;28;20391;-75
2021/10/07 05:29:24;;;;;;;18.52;11.05;;;;;;;;;;8224175;28;20344;-75
2021/10/07 05:33:30;;;;;;;26.33;17.17;;;;;;;;;;8240162;28;20491;-75
2021/10/07 05:37:35;;;;;;;22.33;13.90;;;;;;;;;;8224639;28;20460;-75
2021/10/07 05:41:40;;;;;;;15.60;10.75;;;;;;;;;;8221840;28;20075;-75
2021/10/07 05:45:46;;;;;;;18.70;12.23;;;;;;;;;;8225402;28;20369;-75
2021/10/07 05:49:51;;;;;;;19.92;12.73;;;;;;;;;;8223654;28;20474;-74
2021/10/07 05:53:56;;;;;;;19.20;12.88;;;;;;;;;;8223261;28;20357;-74
2021/10/07 05:58:01;;;;;;;18.63;12.73;;;;;;;;;;8224157;28;20476;-74
2021/10/07 06:02:07;;;;;;;17.25;10.85;;;;;;;;;;8224763;28;20416;-75
2021/10/07 06:06:12;;;;;;;15.68;9.70;;;;;;;;;;8224347;28;20465;-74
2021/10/07 06:10:17;;;;;;;22.05;11.20;;;;;;;;;;8222868;28;20072;-74
2021/10/07 06:14:23;;;;;;;18.45;11.30;;;;;;;;;;7881748;28;10000767;-74
2021/10/07 06:18:28;;;;;;;19.02;12.25;;;;;;;;;;8223351;28;20353;-75
2021/10/07 06:22:34;;;;;;;22.23;12.80;;;;;;;;;;8225417;28;20484;-74
2021/10/07 06:26:43;;;;;;;20.27;13.05;;;;;;;;;;8223796;28;20487;-74
2021/10/07 06:30:48;;;;;;;22.45;12.77;;;;;;;;;;8225032;28;20461;-75
2021/10/07 06:34:53;;;;;;;25.70;13.70;;;;;;;;;;8230286;28;20322;-74
2021/10/07 06:38:59;;;;;;;23.98;12.98;;;;;;;;;;8245650;28;20520;-74
2021/10/07 06:43:05;;;;;;;27.73;13.32;;;;;;;;;;8229431;28;20498;-74
2021/10/07 06:47:10;;;;;;;20.00;11.90;;;;;;;;;;8229356;28;20045;-74
2021/10/07 06:51:15;;;;;;;21.95;12.95;;;;;;;;;;8229272;28;20472;-74
2021/10/07 06:55:21;;;;;;;21.70;12.30;;;;;;;;;;8228516;28;20522;-74
2021/10/07 06:59:26;;;;;;;19.85;11.88;;;;;;;;;;8232012;28;20464;-74
2021/10/07 07:03:31;;;;;;;19.90;11.35;;;;;;;;;;8228614;28;20377;-74
2021/10/07 07:07:36;;;;;;;20.95;11.80;;;;;;;;;;8243469;28;20456;-74
2021/10/07 07:11:42;;;;;;;25.38;13.75;;;;;;;;;;8227886;28;20499;-74
2021/10/07 07:15:47;;;;;;;24.08;13.25;;;;;;;;;;8225777;28;20383;-73
2021/10/07 07:19:52;;;;;;;24.63;13.13;;;;;;;;;;8227315;28;20349;-74
2021/10/07 07:23:58;;;;;;;36.55;16.33;;;;;;;;;;8226632;28;20376;-73
2021/10/07 07:28:04;;;;;;;41.92;17.33;;;;;;;;;;8230743;28;20380;-74
2021/10/07 07:32:10;;;;;;;30.20;13.43;;;;;;;;;;8225563;28;20407;-74
2021/10/07 07:36:19;;;;;;;28.30;15.48;;;;;;;;;;8227847;28;20356;-73
2021/10/07 07:40:25;;;;;;;29.92;16.35;;;;;;;;;;8226635;28;20067;-73
2021/10/07 07:44:30;;;;;;;31.67;15.27;;;;;;;;;;8226641;28;20367;-73
2021/10/07 07:48:36;;;;;;;32.70;14.43;;;;;;;;;;8226045;28;20417;-74
2021/10/07 07:52:41;;;;;;;26.35;13.50;;;;;;;;;;8225470;28;20357;-74
2021/10/07 07:56:46;;;;;;;25.17;12.07;;;;;;;;;;8226954;28;20053;-74
2021/10/07 08:00:52;;;;;;;27.35;11.73;;;;;;;;;;8227343;28;20480;-73
2021/10/07 08:04:57;;;;;;;36.70;14.10;;;;;;;;;;8227422;28;20474;-73
2021/10/07 08:09:06;;;;;;;37.35;15.55;;;;;;;;;;8224884;28;20534;-74
2021/10/07 08:13:10;;;;;;;;;;;;;;;;;;8225957;28;20481;-73
2021/10/07 08:17:16;;;;;;;45.97;15.25;;;;;;;;;;8227026;28;19921;-73
2021/10/07 08:21:22;;;;;;;46.40;18.08;;;;;;;;;;8224720;28;20368;-73
2021/10/07 08:25:27;;;;;;;50.28;19.85;;;;;;;;;;8225629;28;20479;-72
2021/10/07 08:29:32;;;;;;;46.72;18.10;;;;;;;;;;8207480;28;20357;-73
2021/10/07 08:33:38;;;;;;;48.35;18.15;;;;;;;;;;8207946;28;20103;-73
2021/10/07 08:37:45;;;;;;;35.47;16.05;;;;;;;;;;8225843;28;20512;-73
2021/10/07 08:41:51;;;;;;;32.58;15.63;;;;;;;;;;8239232;28;20408;-73
2021/10/07 08:45:56;;;;;;;31.10;13.00;;;;;;;;;;8240809;28;20360;-73
2021/10/07 08:50:02;;;;;;;37.65;15.18;;;;;;;;;;8227690;28;20365;-73
2021/10/07 08:54:07;;;;;;;25.88;12.93;;;;;;;;;;8223636;28;20477;-73
2021/10/07 08:58:12;;;;;;;30.63;15.10;;;;;;;;;;8226582;28;20475;-73
2021/10/07 09:02:30;;;;;;;28.63;13.90;;;;;;;;;;8207124;28;20492;-72
2021/10/07 09:06:35;;;;;;;33.67;14.43;;;;;;;;;;8240759;28;20045;-73
2021/10/07 09:10:55;;;;;;;34.47;14.90;;;;;;;;;;8223761;28;20449;-73
2021/10/07 09:15:00;;;;;;;28.65;14.25;;;;;;;;;;8225749;28;20364;-72
2021/10/07 09:19:35;;;;;;;27.85;13.68;;;;;;;;;;8225233;28;20349;-72
2021/10/07 09:23:41;;;;;;;26.60;13.65;;;;;;;;;;8225540;28;20481;-72
2021/10/07 09:27:46;;;;;;;22.55;11.73;;;;;;;;;;8223590;28;20072;-73
2021/10/07 09:31:52;;;;;;;23.45;11.73;;;;;;;;;;8224466;28;20362;-72
2021/10/07 09:36:17;;;;;;;23.02;11.27;;;;;;;;;;8239923;28;20045;-73
2021/10/07 09:40:27;;;;;;;23.55;12.10;;;;;;;;;;8225284;28;20356;-72
2021/10/07 09:44:32;;;;;;;20.27;11.38;;;;;;;;;;8223389;28;20096;-72
2021/10/07 09:48:40;;;;;;;15.48;9.32;;;;;;;;;;8238603;28;20495;-72
2021/10/07 09:52:49;;;;;;;18.20;10.03;;;;;;;;;;8224734;28;20472;-73
2021/10/07 09:57:00;;;;;;;14.85;9.57;;;;;;;;;;8224591;28;20479;-72
2021/10/07 10:01:06;;;;;;;22.67;11.23;;;;;;;;;;8225450;28;20453;-73
2021/10/07 10:05:12;;;;;;;22.13;9.77;;;;;;;;;;8240030;28;20049;-72
2021/10/07 10:09:21;;;;;;;16.88;8.13;;;;;;;;;;8229823;28;20465;-73
2021/10/07 10:13:27;;;;;;;24.55;15.63;;;;;;;;;;8230420;28;20071;-73
2021/10/07 10:17:35;;;;;;;15.95;9.65;;;;;;;;;;8244414;28;20461;-72
2021/10/07 10:21:41;;;;;;;13.85;8.15;;;;;;;;;;8229525;28;20461;-73
2021/10/07 10:26:14;;;;;;;17.60;8.40;;;;;;;;;;8228407;28;20489;-72
2021/10/07 10:30:26;;;;;;;15.13;8.70;;;;;;;;;;8225028;28;20042;-72
2021/10/07 10:34:45;;;;;;;15.38;9.18;;;;;;;;;;8230644;28;20453;-72
2021/10/07 10:39:13;;;;;;;14.57;9.13;;;;;;;;;;8245536;28;20397;-72
2021/10/07 10:43:18;;;;;;;14.68;8.90;;;;;;;;;;8228232;28;20063;-73
2021/10/07 10:47:27;;;;;;;17.17;9.05;;;;;;;;;;8230301;28;20476;-72
2021/10/07 10:51:34;;;;;;;18.83;8.95;;;;;;;;;;8227579;28;20461;-72
2021/10/07 10:55:46;;;;;;;14.45;8.95;;;;;;;;;;8244278;28;20068;-73
2021/10/07 11:00:14;;;;;;;11.88;7.68;;;;;;;;;;8231198;28;20475;-72
2021/10/07 11:04:46;;;;;;;;;;;;;;;;;;8229701;28;20472;-73
2021/10/07 11:08:52;;;;;;;13.15;6.65;;;;;;;;;;8229626;28;20003;-73
2021/10/07 11:13:00;;;;;;;11.90;7.35;;;;;;;;;;8243602;28;20606;-73
2021/10/07 11:17:09;;;;;;;10.00;6.68;;;;;;;;;;8226275;28;20465;-73
2021/10/07 11:21:22;;;;;;;8.48;5.93;;;;;;;;;;8227073;28;20484;-73
2021/10/07 11:25:31;;;;;;;9.15;6.22;;;;;;;;;;8211091;28;20367;-73
2021/10/07 11:29:36;;;;;;;13.02;6.90;;;;;;;;;;8229611;28;20441;-73
2021/10/07 11:33:49;;;;;;;12.15;6.70;;;;;;;;;;8230351;28;20590;-73
2021/10/07 11:37:54;;;;;;;16.15;8.32;;;;;;;;;;8226372;28;20064;-72
2021/10/07 11:42:02;;;;;;;11.43;7.22;;;;;;;;;;8228770;28;20445;-73
2021/10/07 11:46:16;;;;;;;7.95;5.10;;;;;;;;;;8227965;28;20495;-73
2021/10/07 11:50:25;;;;;;;12.32;5.32;;;;;;;;;;8240951;28;20367;-73
2021/10/07 11:54:30;;;;;;;12.05;5.65;;;;;;;;;;8226628;28;20487;-73
2021/10/07 11:58:35;;;;;;;9.27;5.43;;;;;;;;;;8226345;28;20365;-73
2021/10/07 12:02:40;;;;;;;10.18;5.43;;;;;;;;;;8227437;28;20492;-73
2021/10/07 12:06:46;;;;;;;10.38;5.03;;;;;;;;;;8226190;28;20464;-73
2021/10/07 12:11:06;;;;;;;10.65;5.03;;;;;;;;;;8227354;28;20498;-73
2021/10/07 12:15:16;;;;;;;15.23;6.10;;;;;;;;;;8224017;28;20095;-73
2021/10/07 12:19:24;;;;;;;9.02;5.03;;;;;;;;;;8229454;28;20429;-73
2021/10/07 12:23:31;;;;;;;14.00;5.43;;;;;;;;;;8225445;28;20479;-72
2021/10/07 12:27:37;;;;;;;;;;;;;;;;;;8225859;28;20440;-72
2021/10/07 12:31:53;;;;;;;9.65;4.93;;;;;;;;;;8224386;28;20303;-73
2021/10/07 12:36:03;;;;;;;12.48;5.30;;;;;;;;;;8225158;28;20376;-73
2021/10/07 12:40:10;;;;;;;12.40;5.65;;;;;;;;;;8226092;28;20050;-73
2021/10/07 12:44:21;;;;;;;14.80;5.30;;;;;;;;;;8226748;28;20473;-73
2021/10/07 12:48:26;;;;;;;8.15;4.80;;;;;;;;;;8225873;28;20534;-73
2021/10/07 12:52:38;;;;;;;14.57;7.30;;;;;;;;;;8226972;28;20351;-72
2021/10/07 12:56:46;;;;;;;10.20;5.15;;;;;;;;;;8241459;28;20376;-72
2021/10/07 13:01:12;;;;;;;16.25;4.90;;;;;;;;;;8224523;28;20480;-73
2021/10/07 13:05:26;;;;;;;7.63;4.75;;;;;;;;;;8223495;28;20495;-72
2021/10/07 13:09:32;;;;;;;13.18;6.53;;;;;;;;;;8228611;28;20445;-72
2021/10/07 13:13:37;;;;;;;8.82;3.95;;;;;;;;;;8227593;28;20492;-73
2021/10/07 13:17:44;;;;;;;12.98;5.80;;;;;;;;;;8224907;28;20456;-73
2021/10/07 13:21:49;;;;;;;9.88;4.78;;;;;;;;;;8225358;28;20071;-73
2021/10/07 13:25:54;;;;;;;13.10;5.35;;;;;;;;;;8242197;28;20475;-73
2021/10/07 13:29:59;;;;;;;8.80;4.65;;;;;;;;;;8240843;28;20447;-73
2021/10/07 13:34:04;;;;;;;13.65;5.03;;;;;;;;;;8225811;28;20330;-73
2021/10/07 13:38:10;;;;;;;12.60;4.93;;;;;;;;;;8241169;28;20491;-72
2021/10/07 13:42:16;;;;;;;8.98;4.55;;;;;;;;;;8230824;28;20361;-73
2021/10/07 13:46:22;;;;;;;8.82;4.43;;;;;;;;;;8232748;28;20526;-73
2021/10/07 13:50:28;;;;;;;17.85;6.22;;;;;;;;;;8232485;28;20069;-74
2021/10/07 13:54:33;;;;;;;10.27;4.72;;;;;;;;;;8233491;28;20332;-74
2021/10/07 13:58:38;;;;;;;9.50;5.55;;;;;;;;;;8197795;28;20459;-72
2021/10/07 14:02:44;;;;;;;12.30;4.75;;;;;;;;;;8220413;28;20073;-72
2021/10/07 14:06:49;;;;;;;8.15;4.47;;;;;;;;;;8230730;28;20355;-72
2021/10/07 14:10:56;;;;;;;15.77;5.88;;;;;;;;;;8230532;28;20437;-73
2021/10/07 14:15:01;;;;;;;10.30;4.73;;;;;;;;;;8228527;28;20407;-73
2021/10/07 14:19:06;;;;;;;10.35;4.45;;;;;;;;;;8231077;28;20365;-75
2021/10/07 14:23:11;;;;;;;12.32;5.07;;;;;;;;;;8231099;28;20466;-72
2021/10/07 14:27:17;;;;;;;10.13;3.97;;;;;;;;;;8230169;28;20491;-73
2021/10/07 14:31:27;;;;;;;8.48;3.80;;;;;;;;;;8227828;28;20484;-73
2021/10/07 14:35:32;;;;;;;8.55;3.70;;;;;;;;;;8227828;28;20076;-74
2021/10/07 14:39:38;;;;;;;27.15;8.00;;;;;;;;;;8244098;28;20045;-73
2021/10/07 14:43:43;;;;;;;13.52;4.28;;;;;;;;;;8232275;28;20332;-73
2021/10/07 14:47:49;;;;;;;16.58;4.05;;;;;;;;;;8229143;28;20392;-74
2021/10/07 14:51:54;;;;;;;10.55;4.10;;;;;;;;;;8226284;28;20072;-72
2021/10/07 14:55:59;;;;;;;19.65;4.00;;;;;;;;;;8230644;28;20336;-72
2021/10/07 15:00:10;;;;;;;7.78;3.20;;;;;;;;;;8228683;28;20488;-73
2021/10/07 15:04:15;;;;;;;14.93;3.75;;;;;;;;;;8226462;28;20061;-73
2021/10/07 15:08:20;;;;;;;12.63;3.63;;;;;;;;;;8229844;28;20468;-72
2021/10/07 15:12:25;;;;;;;11.07;3.40;;;;;;;;;;8228551;28;20033;-72
2021/10/07 15:16:31;;;;;;;10.73;4.00;;;;;;;;;;8227073;28;20389;-72
2021/10/07 15:20:37;;;;;;;12.43;4.15;;;;;;;;;;8227097;28;20038;-73
2021/10/07 15:24:42;;;;;;;21.15;5.93;;;;;;;;;;8226981;28;20049;-72
2021/10/07 15:28:47;;;;;;;41.47;12.75;;;;;;;;;;8229604;28;20461;-72
2021/10/07 15:32:52;;;;;;;29.65;7.70;;;;;;;;;;8226418;28;20403;-72
2021/10/07 15:37:00;;;;;;;97.40;33.40;;;;;;;;;;8228190;28;20491;-72
2021/10/07 15:41:05;;;;;;;174.38;67.07;;;;;;;;;;8225517;28;20072;-72
2021/10/07 15:45:11;;;;;;;116.05;47.05;;;;;;;;;;8226892;28;20412;-72
2021/10/07 15:49:19;;;;;;;18.65;9.75;;;;;;;;;;8225530;28;20515;-72
2021/10/07 15:53:24;;;;;;;16.65;8.60;;;;;;;;;;8226563;28;20041;-72
2021/10/07 15:57:32;;;;;;;16.42;6.68;;;;;;;;;;8225797;28;20361;-72
2021/10/07 16:01:38;;;;;;;27.15;14.85;;;;;;;;;;8227144;28;20049;-72
2021/10/07 16:05:43;;;;;;;30.58;14.80;;;;;;;;;;8225128;28;20364;-73
2021/10/07 16:09:48;;;;;;;38.75;18.40;;;;;;;;;;8240130;28;20045;-73
2021/10/07 16:13:54;;;;;;;22.92;7.78;;;;;;;;;;8240381;28;20468;-73
2021/10/07 16:18:01;;;;;;;21.50;8.20;;;;;;;;;;8225347;28;20077;-72
2021/10/07 16:22:06;;;;;;;14.57;6.45;;;;;;;;;;8228265;28;20376;-72
2021/10/07 16:26:12;;;;;;;40.13;18.48;;;;;;;;;;8226496;28;20475;-72
2021/10/07 16:30:18;;;;;;;21.27;10.90;;;;;;;;;;8208265;28;20487;-73
2021/10/07 16:34:23;;;;;;;23.75;11.45;;;;;;;;;;8225231;28;20464;-73
2021/10/07 16:38:29;;;;;;;20.80;11.35;;;;;;;;;;8225631;28;20368;-73
2021/10/07 16:42:35;;;;;;;29.55;10.95;;;;;;;;;;8226511;28;20480;-72
2021/10/07 16:46:40;;;;;;;38.40;11.95;;;;;;;;;;8225230;28;20368;-72
2021/10/07 16:50:46;;;;;;;45.10;13.82;;;;;;;;;;8224458;28;20491;-73
2021/10/07 16:54:51;;;;;;;34.80;13.57;;;;;;;;;;8225445;28;20052;-73
2021/10/07 16:58:56;;;;;;;33.38;12.75;;;;;;;;;;8240283;28;20485;-73
2021/10/07 17:03:02;;;;;;;33.97;12.48;;;;;;;;;;8225433;28;20353;-72
2021/10/07 17:07:08;;;;;;;25.27;11.27;;;;;;;;;;8224161;28;20360;-73
2021/10/07 17:11:16;;;;;;;28.73;12.02;;;;;;;;;;8223582;28;20487;-74
2021/10/07 17:15:21;;;;;;;30.33;12.65;;;;;;;;;;8239845;28;20453;-73
2021/10/07 17:19:27;;;;;;;30.58;11.55;;;;;;;;;;8225646;28;20461;-72
2021/10/07 17:23:32;;;;;;;23.85;12.25;;;;;;;;;;8223076;28;20067;-73
2021/10/07 17:27:44;;;;;;;29.40;12.85;;;;;;;;;;8239430;28;20045;-72
2021/10/07 17:31:49;;;;;;;25.73;12.43;;;;;;;;;;8239867;28;20045;-73
2021/10/07 17:35:55;;;;;;;25.83;10.93;;;;;;;;;;8224750;28;20456;-73
2021/10/07 17:40:00;;;;;;;19.17;9.90;;;;;;;;;;8224500;28;20637;-72
2021/10/07 17:44:08;;;;;;;39.55;10.95;;;;;;;;;;8239605;28;20075;-73
2021/10/07 17:48:13;;;;;;;33.88;13.27;;;;;;;;;;8224301;28;21039;-73
2021/10/07 17:52:22;;;;;;;40.25;11.75;;;;;;;;;;8223800;28;20487;-73
2021/10/07 17:56:27;;;;;;;25.85;9.38;;;;;;;;;;8226851;28;20448;-72
2021/10/07 18:00:33;;;;;;;38.38;14.32;;;;;;;;;;8222844;28;20064;-72
2021/10/07 18:04:50;;;;;;;37.03;16.23;;;;;;;;;;8225424;28;20468;-72
2021/10/07 18:08:58;;;;;;;34.45;12.70;;;;;;;;;;8222710;28;20376;-72
2021/10/07 18:13:04;;;;;;;45.10;17.25;;;;;;;;;;8224547;28;20637;-72
2021/10/07 18:17:11;;;;;;;28.20;11.60;;;;;;;;;;8223064;28;20474;-73
2021/10/07 18:21:20;;;;;;;38.10;14.00;;;;;;;;;;8225199;28;20328;-73
2021/10/07 18:25:25;;;;;;;71.97;21.63;;;;;;;;;;8223961;28;20396;-73
2021/10/07 18:29:30;;;;;;;84.05;26.83;;;;;;;;;;8246391;28;20045;-72
2021/10/07 18:33:36;;;;;;;92.35;29.55;;;;;;;;;;8229830;28;20046;-73
2021/10/07 18:37:42;;;;;;;62.78;20.27;;;;;;;;;;8228833;28;20045;-72
2021/10/07 18:41:47;;;;;;;49.90;16.33;;;;;;;;;;8228095;28;20516;-72
2021/10/07 18:45:53;;;;;;;43.65;14.82;;;;;;;;;;8227906;28;20482;-72
2021/10/07 18:49:58;;;;;;;25.98;11.43;;;;;;;;;;8231907;28;20449;-73
2021/10/07 18:54:04;;;;;;;35.58;14.27;;;;;;;;;;8228549;28;20464;-73
2021/10/07 18:58:09;;;;;;;40.10;12.52;;;;;;;;;;8228513;28;20050;-73
2021/10/07 19:02:14;;;;;;;21.95;8.02;;;;;;;;;;8228251;28;20499;-73
2021/10/07 19:06:19;;;;;;;31.92;7.57;;;;;;;;;;8227441;28;20404;-73
2021/10/07 19:10:27;;;;;;;26.05;8.38;;;;;;;;;;8230526;28;20480;-72
2021/10/07 19:14:34;;;;;;;28.00;8.98;;;;;;;;;;8228670;28;20449;-73
2021/10/07 19:18:39;;;;;;;34.70;8.95;;;;;;;;;;8228116;28;20341;-72
2021/10/07 19:22:45;;;;;;;36.88;9.63;;;;;;;;;;8228655;28;20349;-73
2021/10/07 19:26:50;;;;;;;26.80;7.93;;;;;;;;;;8226627;28;20045;-73
2021/10/07 19:30:55;;;;;;;21.05;5.90;;;;;;;;;;8229070;28;20460;-73
2021/10/07 19:35:01;;;;;;;24.63;5.28;;;;;;;;;;8226574;28;20049;-73
2021/10/07 19:39:07;;;;;;;23.42;6.18;;;;;;;;;;8229091;28;20392;-72
2021/10/07 19:43:14;;;;;;;20.65;6.13;;;;;;;;;;8228414;28;20050;-72
2021/10/07 19:47:20;;;;;;;35.40;5.97;;;;;;;;;;8228546;28;20384;-72
2021/10/07 19:51:25;;;;;;;35.47;10.02;;;;;;;;;;8226025;28;20468;-72
2021/10/07 19:55:30;;;;;;;34.83;8.68;;;;;;;;;;8227287;28;20498;-72
2021/10/07 19:59:35;;;;;;;44.38;9.75;;;;;;;;;;8227298;28;20071;-72
2021/10/07 20:03:40;;;;;;;37.28;9.77;;;;;;;;;;8226236;28;20357;-73
2021/10/07 20:07:45;;;;;;;34.45;9.02;;;;;;;;;;8227047;28;20482;-73
2021/10/07 20:11:51;;;;;;;24.77;8.25;;;;;;;;;;8241660;28;20485;-73
2021/10/07 20:15:56;;;;;;;25.33;7.85;;;;;;;;;;8225083;28;20480;-74
2021/10/07 20:20:01;;;;;;;21.80;7.03;;;;;;;;;;8226008;28;20491;-73
2021/10/07 20:24:06;;;;;;;31.35;7.72;;;;;;;;;;8227436;28;20496;-73
2021/10/07 20:28:11;;;;;;;28.95;6.72;;;;;;;;;;8208427;28;20468;-72
2021/10/07 20:32:17;;;;;;;18.27;6.63;;;;;;;;;;8226393;28;20486;-74
2021/10/07 20:40:42;;;;;;;29.25;5.85;;;;;;;;;;8209543;28;20059;-73
2021/10/07 20:44:49;;;;;;;24.58;5.80;;;;;;;;;;8223988;28;20392;-73
2021/10/07 20:48:56;;;;;;;23.05;5.97;;;;;;;;;;8225434;28;20349;-73
2021/10/07 20:53:01;;;;;;;18.63;5.22;;;;;;;;;;8224709;28;20473;-73
2021/10/07 20:57:06;;;;;;;18.33;5.55;;;;;;;;;;8241149;28;20510;-72
2021/10/07 21:01:12;;;;;;;38.45;6.50;;;;;;;;;;8223725;28;20480;-73
2021/10/07 21:05:17;;;;;;;19.73;5.40;;;;;;;;;;8239361;28;20477;-72
2021/10/07 21:10:17;;;;;;;18.23;5.85;;;;;;;;;;8222689;28;20491;-73
2021/10/07 21:14:24;;;;;;;17.50;7.10;;;;;;;;;;8225458;28;20476;-73
2021/10/07 21:18:29;;;;;;;24.48;6.38;;;;;;;;;;8240533;28;20484;-73
2021/10/07 21:22:34;;;;;;;12.98;5.68;;;;;;;;;;8224167;28;20475;-73
2021/10/07 21:26:40;;;;;;;27.52;5.50;;;;;;;;;;8225369;28;20045;-73
2021/10/07 21:30:45;;;;;;;17.73;5.53;;;;;;;;;;8223529;28;20484;-73
2021/10/07 21:34:50;;;;;;;20.73;6.13;;;;;;;;;;8239377;28;20087;-74
2021/10/07 21:38:56;;;;;;;16.95;6.57;;;;;;;;;;8224716;28;20364;-72
2021/10/07 21:43:01;;;;;;;31.38;6.20;;;;;;;;;;8225899;28;20075;-72
2021/10/07 21:47:07;;;;;;;24.73;6.13;;;;;;;;;;8226010;28;20057;-72
2021/10/07 21:51:12;;;;;;;15.27;5.78;;;;;;;;;;8224391;28;20034;-73
2021/10/07 21:55:18;;;;;;;22.00;6.30;;;;;;;;;;8238994;28;20477;-73
2021/10/07 21:59:25;;;;;;;23.98;5.88;;;;;;;;;;8224651;28;20441;-72
2021/10/07 22:03:29;;;;;;;19.38;5.72;;;;;;;;;;8230204;28;20388;-73
2021/10/07 22:07:34;;;;;;;26.20;5.60;;;;;;;;;;8230686;28;20467;-73
2021/10/07 22:11:39;;;;;;;18.67;5.13;;;;;;;;;;8229222;28;20063;-73
2021/10/07 22:15:44;;;;;;;23.90;6.10;;;;;;;;;;8231561;28;20432;-73
2021/10/07 22:19:50;;;;;;;18.27;5.72;;;;;;;;;;8245719;28;20059;-73
2021/10/07 22:23:55;;;;;;;23.02;6.07;;;;;;;;;;8246552;28;20396;-73
2021/10/07 22:28:00;;;;;;;15.80;5.53;;;;;;;;;;8228670;28;20072;-72
2021/10/07 22:32:07;;;;;;;21.00;6.07;;;;;;;;;;8212134;28;20506;-74
2021/10/07 22:36:12;;;;;;;18.15;6.40;;;;;;;;;;8229410;28;20495;-73
2021/10/07 22:40:18;;;;;;;12.25;6.18;;;;;;;;;;8230458;28;20041;-73
2021/10/07 22:44:24;;;;;;;17.52;6.60;;;;;;;;;;8229320;28;20449;-73
2021/10/07 22:48:30;;;;;;;16.52;6.00;;;;;;;;;;8227961;28;20353;-73
2021/10/07 22:52:35;;;;;;;18.55;5.93;;;;;;;;;;8227878;28;20476;-73
2021/10/07 22:56:41;;;;;;;31.77;6.60;;;;;;;;;;8227394;28;20372;-74
2021/10/07 23:00:47;;;;;;;15.32;5.93;;;;;;;;;;8231199;28;20408;-72
2021/10/07 23:04:52;;;;;;;26.33;8.10;;;;;;;;;;8211051;28;20376;-74
2021/10/07 23:08:57;;;;;;;22.27;8.40;;;;;;;;;;8228796;28;20076;-73
2021/10/07 23:13:02;;;;;;;26.52;8.05;;;;;;;;;;8228285;28;20049;-74
2021/10/07 23:17:08;;;;;;;22.52;7.57;;;;;;;;;;8226929;28;20445;-73
2021/10/07 23:21:13;;;;;;;31.35;9.20;;;;;;;;;;8229004;28;20068;-73
2021/10/07 23:25:18;;;;;;;24.40;8.02;;;;;;;;;;8230499;28;20371;-73
2021/10/07 23:29:23;;;;;;;18.92;6.25;;;;;;;;;;8228173;28;20465;-73
2021/10/07 23:33:28;;;;;;;27.30;6.72;;;;;;;;;;8229438;28;20357;-73
2021/10/07 23:37:34;;;;;;;26.10;9.25;;;;;;;;;;8227037;28;20049;-73
2021/10/07 23:41:39;;;;;;;22.10;7.72;;;;;;;;;;8226377;28;20045;-73
2021/10/07 23:45:46;;;;;;;30.73;8.45;;;;;;;;;;8227183;28;20049;-73
2021/10/07 23:49:51;;;;;;;22.10;7.45;;;;;;;;;;8228524;28;20464;-74
2021/10/07 23:53:56;;;;;;;14.93;6.13;;;;;;;;;;8227157;28;20476;-73
2021/10/07 23:58:01;;;;;;;20.75;6.55;;;;;;;;;;8225304;28;20456;-74
